createdAt,value
2022-12-08T00:00:38.729Z,36.21
2022-12-08T00:03:05.222Z,36.05
2022-12-08T00:05:31.681Z,36.16
2022-12-08T00:08:00.325Z,36.16
2022-12-08T00:10:48.411Z,36.08
2022-12-08T00:13:12.946Z,36.13
2022-12-08T00:18:25.715Z,36.05
2022-12-08T00:20:54.442Z,36.22
2022-12-08T00:23:20.729Z,36.23
2022-12-08T00:25:47.240Z,36.12
2022-12-08T00:28:13.623Z,35.93
2022-12-08T00:30:40.256Z,36.09
2022-12-08T00:33:06.572Z,36.01
2022-12-08T00:35:38.724Z,36.13
2022-12-08T00:38:07.888Z,36.18
2022-12-08T00:40:34.173Z,36.11
2022-12-08T00:43:00.529Z,36.17
2022-12-08T00:45:26.825Z,36.06
2022-12-08T00:47:53.175Z,36.18
2022-12-08T00:50:19.583Z,36.06
2022-12-08T00:52:47.175Z,36.14
2022-12-08T00:55:13.499Z,36.04
2022-12-08T00:57:39.806Z,36.17
2022-12-08T01:00:07.018Z,36.08
2022-12-08T01:02:33.471Z,36.04
2022-12-08T01:04:59.765Z,36.06
2022-12-08T01:07:26.052Z,36.01
2022-12-08T01:09:53.708Z,36.06
2022-12-08T01:12:19.987Z,35.91
2022-12-08T01:14:46.328Z,36.13
2022-12-08T01:17:12.633Z,36.12
2022-12-08T01:19:39.005Z,36.11
2022-12-08T01:22:05.413Z,36.13
2022-12-08T01:24:31.714Z,36.00
2022-12-08T01:26:59.294Z,36.14
2022-12-08T01:29:26.349Z,36.11
2022-12-08T01:31:52.732Z,36.18
2022-12-08T01:34:19.008Z,35.98
2022-12-08T01:36:45.321Z,36.06
2022-12-08T01:39:14.185Z,36.00
2022-12-08T01:41:40.494Z,36.12
2022-12-08T01:44:16.656Z,36.07
2022-12-08T01:46:45.194Z,36.00
2022-12-08T01:49:13.833Z,36.08
2022-12-08T01:51:42.364Z,36.02
2022-12-08T01:54:09.225Z,36.09
2022-12-08T01:56:42.070Z,36.04
2022-12-08T01:59:09.468Z,36.13
2022-12-08T02:01:35.963Z,36.04
2022-12-08T02:04:03.883Z,35.97
2022-12-08T02:06:32.475Z,36.03
2022-12-08T02:09:00.448Z,36.00
2022-12-08T02:11:26.787Z,36.07
2022-12-08T02:13:53.993Z,36.02
2022-12-08T02:16:29.131Z,36.03
2022-12-08T02:19:29.696Z,36.12
2022-12-08T02:21:55.731Z,36.14
2022-12-08T02:24:28.002Z,35.98
2022-12-08T02:27:08.928Z,36.01
2022-12-08T02:29:45.126Z,35.97
2022-12-08T02:32:20.623Z,35.72
2022-12-08T02:34:53.191Z,35.81
2022-12-08T02:37:26.450Z,35.65
2022-12-08T02:39:58.005Z,35.63
2022-12-08T02:42:27.419Z,35.65
2022-12-08T02:44:57.749Z,35.49
2022-12-08T02:47:25.014Z,35.35
2022-12-08T02:49:54.481Z,35.32
2022-12-08T02:52:30.676Z,35.20
2022-12-08T02:54:58.249Z,35.12
2022-12-08T02:57:31.207Z,35.08
2022-12-08T03:00:04.577Z,35.04
2022-12-08T03:02:39.325Z,35.10
2022-12-08T03:05:13.681Z,35.14
2022-12-08T03:07:44.435Z,34.99
2022-12-08T03:10:12.366Z,35.13
2022-12-08T03:12:42.779Z,35.02
2022-12-08T03:15:11.191Z,34.98
2022-12-08T03:17:39.195Z,34.92
2022-12-08T03:20:10.923Z,34.89
2022-12-08T03:22:39.361Z,34.83
2022-12-08T03:25:06.208Z,34.89
2022-12-08T03:27:32.626Z,34.71
2022-12-08T03:30:00.175Z,34.72
2022-12-08T03:32:29.195Z,34.51
2022-12-08T03:34:56.427Z,34.59
2022-12-08T03:37:24.190Z,34.66
2022-12-08T03:39:50.504Z,34.49
2022-12-08T03:42:16.878Z,34.50
2022-12-08T03:44:43.165Z,34.50
2022-12-08T03:47:09.460Z,34.38
2022-12-08T03:49:35.757Z,34.37
2022-12-08T03:52:02.215Z,34.51
2022-12-08T03:54:29.780Z,34.46
2022-12-08T03:56:56.059Z,34.41
2022-12-08T03:59:22.339Z,34.31
2022-12-08T04:01:48.757Z,34.33
2022-12-08T04:04:15.047Z,34.36
2022-12-08T04:06:41.321Z,34.09
2022-12-08T04:09:07.735Z,34.26
2022-12-08T04:11:35.345Z,34.24
2022-12-08T04:14:01.697Z,34.10
2022-12-08T04:16:28.133Z,34.17
2022-12-08T04:18:54.546Z,34.00
2022-12-08T04:21:20.851Z,34.06
2022-12-08T04:23:47.759Z,33.86
2022-12-08T04:26:14.382Z,33.99
2022-12-08T04:28:42.162Z,34.00
2022-12-08T04:31:08.778Z,33.96
2022-12-08T04:33:35.193Z,33.92
2022-12-08T04:36:01.502Z,33.87
2022-12-08T04:38:27.774Z,33.94
2022-12-08T04:40:54.267Z,33.89
2022-12-08T04:43:20.572Z,33.65
2022-12-08T04:45:48.220Z,33.78
2022-12-08T04:48:14.736Z,33.85
2022-12-08T04:50:41.840Z,33.76
2022-12-08T04:53:08.875Z,33.66
2022-12-08T04:55:37.853Z,33.61
2022-12-08T04:58:04.155Z,33.85
2022-12-08T05:00:30.466Z,33.69
2022-12-08T05:02:58.197Z,33.58
2022-12-08T05:05:24.567Z,33.65
2022-12-08T05:07:50.870Z,33.54
2022-12-08T05:10:17.228Z,33.76
2022-12-08T05:12:43.691Z,33.53
2022-12-08T05:15:10.095Z,33.57
2022-12-08T05:17:36.387Z,33.56
2022-12-08T05:20:04.382Z,33.57
2022-12-08T05:22:30.923Z,33.51
2022-12-08T05:24:57.277Z,33.36
2022-12-08T05:27:23.729Z,33.50
2022-12-08T05:29:49.976Z,33.36
2022-12-08T05:32:16.357Z,33.47
2022-12-08T05:34:42.678Z,33.40
2022-12-08T05:37:10.304Z,33.30
2022-12-08T05:39:36.712Z,33.17
2022-12-08T05:42:03.321Z,33.45
2022-12-08T05:44:29.802Z,33.35
2022-12-08T05:46:56.149Z,35.70
2022-12-08T05:49:22.466Z,36.86
2022-12-08T05:51:48.778Z,36.87
2022-12-08T05:54:17.033Z,37.91
2022-12-08T05:56:43.371Z,39.51
2022-12-08T05:59:09.774Z,39.41
2022-12-08T06:01:36.175Z,38.76
2022-12-08T06:04:03.703Z,37.96
2022-12-08T06:06:30.568Z,37.12
2022-12-08T06:08:57.149Z,36.51
2022-12-08T06:11:26.596Z,35.99
2022-12-08T06:13:53.108Z,36.16
2022-12-08T06:16:20.090Z,36.13
2022-12-08T06:18:46.409Z,36.54
2022-12-08T06:21:13.466Z,36.84
2022-12-08T06:23:39.810Z,37.52
2022-12-08T06:26:07.289Z,37.80
2022-12-08T06:28:35.224Z,37.15
2022-12-08T06:31:06.630Z,37.61
2022-12-08T06:33:32.921Z,36.71
2022-12-08T06:35:59.269Z,36.36
2022-12-08T06:38:25.560Z,36.18
2022-12-08T06:40:53.228Z,35.87
2022-12-08T06:43:21.030Z,35.80
2022-12-08T06:45:49.147Z,35.46
2022-12-08T06:48:15.741Z,35.58
2022-12-08T06:50:42.106Z,35.41
2022-12-08T06:53:08.446Z,35.24
2022-12-08T06:55:57.827Z,35.34
2022-12-08T06:58:21.028Z,35.15
2022-12-08T07:00:48.639Z,35.09
2022-12-08T07:03:15.120Z,35.07
2022-12-08T07:05:41.556Z,35.01
2022-12-08T07:08:08.593Z,34.81
2022-12-08T07:10:35.147Z,35.00
2022-12-08T07:13:01.742Z,34.79
2022-12-08T07:15:28.022Z,34.57
2022-12-08T07:17:59.845Z,34.70
2022-12-08T07:20:27.392Z,35.57
2022-12-08T07:22:53.933Z,35.60
2022-12-08T07:25:20.405Z,35.07
2022-12-08T07:27:46.737Z,35.08
2022-12-08T07:30:13.538Z,35.15
2022-12-08T07:32:39.854Z,35.04
2022-12-08T07:35:08.950Z,35.31
2022-12-08T07:37:35.627Z,35.06
2022-12-08T07:40:02.240Z,34.86
2022-12-08T07:42:32.754Z,34.65
2022-12-08T07:44:59.076Z,34.68
2022-12-08T07:47:25.397Z,34.67
2022-12-08T07:49:51.741Z,34.77
2022-12-08T07:52:19.547Z,34.77
2022-12-08T07:54:45.841Z,34.97
2022-12-08T07:57:12.252Z,34.99
2022-12-08T07:59:38.562Z,34.78
2022-12-08T08:02:23.683Z,34.90
2022-12-08T08:04:51.142Z,35.17
2022-12-08T08:07:18.944Z,35.08
2022-12-08T08:09:45.275Z,35.49
2022-12-08T08:12:30.098Z,35.36
2022-12-08T08:14:57.452Z,35.29
2022-12-08T08:17:24.055Z,35.79
2022-12-08T08:19:50.509Z,35.43
2022-12-08T08:22:16.838Z,36.29
2022-12-08T08:24:45.338Z,36.36
2022-12-08T08:27:11.836Z,36.70
2022-12-08T08:29:38.171Z,36.15
2022-12-08T08:32:04.510Z,36.23
2022-12-08T08:34:30.899Z,36.12
2022-12-08T08:36:57.274Z,35.82
2022-12-08T08:39:23.904Z,35.64
2022-12-08T08:41:51.682Z,36.03
2022-12-08T08:44:18.062Z,36.03
2022-12-08T08:46:44.490Z,35.60
2022-12-08T08:49:10.882Z,35.76
2022-12-08T08:51:37.189Z,35.67
2022-12-08T08:54:03.542Z,35.31
2022-12-08T08:56:30.196Z,35.15
2022-12-08T08:58:57.828Z,35.81
2022-12-08T09:01:25.534Z,35.36
2022-12-08T09:03:52.197Z,35.43
2022-12-08T09:06:19.338Z,35.37
2022-12-08T09:08:46.149Z,35.91
2022-12-08T09:11:12.709Z,35.54
2022-12-08T09:13:38.995Z,35.23
2022-12-08T09:16:07.890Z,34.87
2022-12-08T09:18:34.634Z,34.79
2022-12-08T09:21:03.920Z,35.88
2022-12-08T09:23:35.203Z,34.93
2022-12-08T09:26:02.592Z,35.26
2022-12-08T09:28:29.107Z,34.94
2022-12-08T09:30:55.715Z,34.90
2022-12-08T09:33:23.512Z,34.48
2022-12-08T09:35:49.829Z,34.46
2022-12-08T09:38:16.193Z,34.44
2022-12-08T09:40:47.643Z,34.59
2022-12-08T09:43:24.108Z,34.49
2022-12-08T09:45:51.159Z,34.58
2022-12-08T09:48:19.107Z,34.71
2022-12-08T09:50:49.354Z,34.64
2022-12-08T09:53:19.488Z,35.29
2022-12-08T09:55:48.801Z,35.30
2022-12-08T09:58:20.145Z,34.95
2022-12-08T10:00:46.860Z,34.80
2022-12-08T10:03:16.552Z,34.69
2022-12-08T10:05:47.088Z,34.55
2022-12-08T10:08:18.947Z,34.61
2022-12-08T10:10:47.520Z,34.55
2022-12-08T10:13:20.539Z,34.56
2022-12-08T10:15:50.803Z,34.49
2022-12-08T10:18:18.261Z,34.44
2022-12-08T10:20:45.748Z,34.37
2022-12-08T10:23:19.156Z,34.31
2022-12-08T10:25:48.000Z,34.40
2022-12-08T10:28:14.437Z,34.34
2022-12-08T10:30:41.049Z,34.58
2022-12-08T10:33:13.288Z,34.51
2022-12-08T10:35:44.483Z,34.50
2022-12-08T10:38:17.025Z,35.31
2022-12-08T10:40:45.840Z,34.94
2022-12-08T10:43:17.404Z,34.64
2022-12-08T10:45:43.804Z,34.57
2022-12-08T10:48:15.975Z,34.58
2022-12-08T10:50:43.402Z,34.65
2022-12-08T10:53:12.320Z,34.64
2022-12-08T10:55:40.615Z,34.45
2022-12-08T10:58:22.725Z,34.36
2022-12-08T11:00:52.201Z,34.51
2022-12-08T11:03:22.705Z,34.46
2022-12-08T11:05:49.527Z,34.88
2022-12-08T11:08:16.409Z,34.64
2022-12-08T11:10:44.045Z,34.60
2022-12-08T11:13:17.064Z,34.62
2022-12-08T11:15:44.475Z,34.62
2022-12-08T11:18:21.060Z,34.81
2022-12-08T11:20:47.503Z,34.19
2022-12-08T11:23:22.036Z,34.18
2022-12-08T11:25:49.257Z,34.79
2022-12-08T11:28:16.520Z,34.52
2022-12-08T11:30:44.939Z,34.50
2022-12-08T11:33:14.936Z,35.07
2022-12-08T11:35:44.301Z,34.83
2022-12-08T11:38:21.932Z,34.26
2022-12-08T11:40:50.170Z,34.20
2022-12-08T11:43:19.062Z,34.37
2022-12-08T11:45:46.892Z,34.53
2022-12-08T11:48:16.540Z,34.18
2022-12-08T11:50:47.990Z,34.02
2022-12-08T11:53:19.774Z,34.00
2022-12-08T11:55:50.199Z,33.90
2022-12-08T11:58:18.507Z,33.76
2022-12-08T12:00:44.883Z,33.84
2022-12-08T12:03:17.767Z,33.67
2022-12-08T12:08:46.205Z,33.55
2022-12-08T12:11:16.648Z,33.53
2022-12-08T12:13:54.320Z,34.12
2022-12-08T12:16:35.572Z,34.14
2022-12-08T12:19:04.577Z,33.97
2022-12-08T12:21:34.695Z,33.79
2022-12-08T12:24:04.737Z,33.87
2022-12-08T12:26:32.000Z,33.81
2022-12-08T12:29:00.986Z,33.58
2022-12-08T12:31:29.405Z,33.95
2022-12-08T12:34:03.971Z,33.86
2022-12-08T12:36:31.981Z,33.61
2022-12-08T12:38:58.762Z,33.51
2022-12-08T12:41:26.227Z,33.69
2022-12-08T12:44:07.311Z,33.54
2022-12-08T12:46:52.394Z,33.38
2022-12-08T12:49:28.532Z,33.34
2022-12-08T12:51:56.167Z,33.23
2022-12-08T12:54:23.492Z,33.34
2022-12-08T12:56:51.118Z,33.28
2022-12-08T12:59:27.294Z,33.25
2022-12-08T13:01:54.874Z,33.09
2022-12-08T13:04:29.252Z,33.03
2022-12-08T13:06:57.149Z,33.16
2022-12-08T13:09:27.399Z,32.91
2022-12-08T13:11:55.710Z,32.89
2022-12-08T13:14:27.388Z,32.95
2022-12-08T13:16:55.045Z,32.83
2022-12-08T13:19:21.944Z,32.95
2022-12-08T13:21:48.293Z,32.94
2022-12-08T13:24:26.622Z,32.96
2022-12-08T13:27:07.791Z,33.08
2022-12-08T13:29:34.434Z,33.05
2022-12-08T13:32:01.452Z,33.05
2022-12-08T13:34:31.463Z,33.13
2022-12-08T13:37:07.817Z,33.11
2022-12-08T13:39:40.890Z,33.29
2022-12-08T13:42:14.033Z,33.34
2022-12-08T13:47:34.857Z,33.96
2022-12-08T13:58:30.067Z,35.34
2022-12-08T14:01:00.268Z,35.19
2022-12-08T14:03:26.895Z,35.16
2022-12-08T14:11:31.474Z,35.46
2022-12-08T14:13:57.895Z,35.31
2022-12-08T14:16:27.933Z,35.39
2022-12-08T14:18:54.329Z,35.63
2022-12-08T14:21:21.804Z,35.50
2022-12-08T14:23:48.487Z,35.06
2022-12-08T14:26:14.871Z,34.65
2022-12-08T14:28:44.997Z,34.58
2022-12-08T14:31:11.961Z,34.33
2022-12-08T14:33:38.490Z,34.23
2022-12-08T14:36:05.155Z,34.14
2022-12-08T14:38:31.791Z,34.32
2022-12-08T14:41:01.052Z,34.35
2022-12-08T14:43:27.889Z,34.28
2022-12-08T14:45:57.263Z,33.91
2022-12-08T14:48:24.871Z,33.84
2022-12-08T14:50:57.901Z,33.97
2022-12-08T14:53:25.374Z,33.77
2022-12-08T14:55:52.110Z,33.57
2022-12-08T14:58:20.663Z,34.08
2022-12-08T15:00:48.486Z,34.44
2022-12-08T15:03:17.430Z,34.49
2022-12-08T15:05:44.398Z,35.12
2022-12-08T15:08:10.991Z,34.94
2022-12-08T15:10:37.383Z,34.71
2022-12-08T15:13:05.755Z,34.74
2022-12-08T15:15:44.456Z,34.66
2022-12-08T15:18:12.127Z,34.45
2022-12-08T15:20:41.638Z,34.24
2022-12-08T15:23:18.941Z,34.35
2022-12-08T15:25:45.586Z,34.23
2022-12-08T15:28:12.778Z,34.25
2022-12-08T15:30:39.069Z,34.25
2022-12-08T15:33:05.511Z,34.06
2022-12-08T15:35:35.956Z,33.90
2022-12-08T15:38:11.974Z,33.93
2022-12-08T15:40:38.299Z,33.67
2022-12-08T15:43:04.707Z,33.75
2022-12-08T15:45:31.686Z,33.60
2022-12-08T15:47:58.058Z,33.54
2022-12-08T15:50:24.502Z,33.61
2022-12-08T15:52:51.292Z,33.74
2022-12-08T15:55:20.852Z,33.62
2022-12-08T15:58:51.929Z,33.57
2022-12-08T16:00:52.472Z,33.70
2022-12-08T16:04:02.718Z,33.86
2022-12-08T16:07:04.379Z,34.08
2022-12-08T16:09:11.111Z,33.91
2022-12-08T16:12:05.315Z,33.90
2022-12-08T16:15:39.747Z,33.68
2022-12-08T16:17:14.350Z,33.70
2022-12-08T16:19:41.267Z,33.64
2022-12-08T16:25:14.705Z,33.61
2022-12-08T16:28:12.417Z,33.61
2022-12-08T16:30:32.061Z,33.63
2022-12-08T16:32:58.533Z,33.59
2022-12-08T16:35:24.996Z,33.47
2022-12-08T16:37:51.334Z,33.55
2022-12-08T16:40:17.720Z,33.60
2022-12-08T16:42:44.077Z,33.48
2022-12-08T16:45:13.134Z,33.35
2022-12-08T16:47:40.523Z,33.48
2022-12-08T16:50:08.650Z,33.47
2022-12-08T16:52:35.046Z,33.51
2022-12-08T16:55:01.454Z,33.35
2022-12-08T16:57:27.853Z,33.38
2022-12-08T16:59:54.157Z,33.36
2022-12-08T17:02:21.782Z,33.42
2022-12-08T17:04:48.191Z,33.35
2022-12-08T17:07:14.634Z,33.34
2022-12-08T17:09:40.962Z,33.14
2022-12-08T17:12:07.323Z,33.11
2022-12-08T17:14:33.971Z,33.22
2022-12-08T17:17:00.374Z,33.11
2022-12-08T17:19:28.248Z,33.08
2022-12-08T17:21:54.796Z,33.11
2022-12-08T17:24:22.259Z,33.13
2022-12-08T17:26:49.047Z,33.11
2022-12-08T17:29:15.544Z,33.06
2022-12-08T17:31:41.912Z,33.18
2022-12-08T17:34:08.326Z,33.08
2022-12-08T17:36:35.937Z,33.15
2022-12-08T17:39:02.465Z,33.35
2022-12-08T17:41:29.307Z,33.21
2022-12-08T17:43:55.669Z,33.23
2022-12-08T17:46:22.315Z,33.26
2022-12-08T17:48:48.702Z,33.24
2022-12-08T17:51:15.189Z,33.35
2022-12-08T17:53:42.850Z,33.14
2022-12-08T17:56:14.549Z,33.24
2022-12-08T17:58:40.895Z,33.19
2022-12-08T18:01:07.801Z,33.30
2022-12-08T18:03:34.191Z,33.15
2022-12-08T18:06:03.540Z,33.19
2022-12-08T18:08:29.879Z,33.39
2022-12-08T18:10:57.744Z,33.25
2022-12-08T18:13:24.079Z,33.17
2022-12-08T18:15:50.601Z,33.43
2022-12-08T18:18:17.091Z,33.30
2022-12-08T18:20:43.366Z,33.26
2022-12-08T18:23:09.805Z,33.24
2022-12-08T18:25:36.143Z,33.25
2022-12-08T18:28:04.057Z,33.16
2022-12-08T18:30:30.432Z,33.34
2022-12-08T18:32:57.575Z,33.33
2022-12-08T18:35:24.070Z,33.18
2022-12-08T18:37:50.380Z,33.20
2022-12-08T18:40:17.485Z,33.13
2022-12-08T18:42:43.947Z,33.18
2022-12-08T18:45:11.800Z,33.24
2022-12-08T18:47:39.262Z,33.35
2022-12-08T18:50:07.768Z,33.16
2022-12-08T18:52:34.430Z,33.27
2022-12-08T18:55:08.226Z,33.08
2022-12-08T18:57:36.132Z,33.20
2022-12-08T19:00:03.716Z,33.05
2022-12-08T19:02:31.767Z,33.07
2022-12-08T19:04:58.212Z,33.05
2022-12-08T19:07:24.547Z,33.08
2022-12-08T19:09:50.859Z,33.08
2022-12-08T19:12:17.190Z,33.01
2022-12-08T19:14:43.575Z,32.91
2022-12-08T19:17:09.936Z,33.00
2022-12-08T19:19:37.544Z,32.95
2022-12-08T19:22:04.719Z,32.89
2022-12-08T19:24:31.009Z,32.89
2022-12-08T19:26:57.428Z,32.94
2022-12-08T19:29:23.780Z,32.77
2022-12-08T19:31:50.158Z,32.80
2022-12-08T19:34:16.564Z,32.75
2022-12-08T19:36:44.340Z,32.89
2022-12-08T19:39:13.027Z,32.69
2022-12-08T19:41:39.327Z,32.92
2022-12-08T19:44:05.634Z,32.75
2022-12-08T19:46:36.059Z,32.75
2022-12-08T19:49:06.493Z,32.77
2022-12-08T19:51:32.818Z,32.82
2022-12-08T19:54:00.462Z,32.95
2022-12-08T19:56:26.814Z,32.68
2022-12-08T19:58:53.259Z,32.84
2022-12-08T20:01:19.622Z,32.78
2022-12-08T20:03:45.985Z,32.82
2022-12-08T20:06:13.264Z,32.76
2022-12-08T20:08:39.730Z,32.84
2022-12-08T20:11:07.452Z,32.77
2022-12-08T20:13:33.774Z,32.79
2022-12-08T20:16:00.142Z,32.74
2022-12-08T20:18:26.583Z,32.86
2022-12-08T20:20:52.884Z,32.69
2022-12-08T20:23:19.221Z,32.75
2022-12-08T20:25:46.043Z,32.92
2022-12-08T20:28:14.154Z,32.76
2022-12-08T20:30:41.445Z,32.80
2022-12-08T20:33:07.787Z,32.69
2022-12-08T20:35:34.282Z,32.80
2022-12-08T20:38:00.606Z,32.81
2022-12-08T20:40:26.926Z,32.70
2022-12-08T20:42:53.246Z,32.96
2022-12-08T20:45:21.058Z,32.76
2022-12-08T20:47:47.397Z,32.78
2022-12-08T20:50:14.150Z,32.75
2022-12-08T20:52:40.917Z,32.75
2022-12-08T20:55:07.904Z,32.89
2022-12-08T20:57:34.413Z,32.98
2022-12-08T21:00:01.002Z,32.75
2022-12-08T21:02:29.274Z,32.95
2022-12-08T21:04:55.864Z,32.86
2022-12-08T21:07:22.478Z,32.88
2022-12-08T21:09:49.347Z,32.80
2022-12-08T21:12:15.976Z,32.89
2022-12-08T21:14:42.484Z,32.88
2022-12-08T21:17:09.287Z,32.99
2022-12-08T21:19:37.739Z,32.97
2022-12-08T21:22:04.390Z,32.89
2022-12-08T21:24:34.240Z,32.87
2022-12-08T21:27:01.247Z,32.82
2022-12-08T21:29:27.731Z,32.97
2022-12-08T21:31:56.065Z,33.03
2022-12-08T21:34:22.760Z,32.82
2022-12-08T21:36:50.481Z,32.88
2022-12-08T21:39:16.756Z,32.83
2022-12-08T21:41:43.766Z,32.86
2022-12-08T21:44:10.972Z,32.98
2022-12-08T21:46:38.092Z,32.88
2022-12-08T21:49:05.107Z,32.80
2022-12-08T21:51:31.740Z,32.92
2022-12-08T21:53:59.688Z,32.92
2022-12-08T21:56:26.078Z,32.72
2022-12-08T21:58:53.489Z,32.78
2022-12-08T22:01:20.076Z,32.91
2022-12-08T22:03:46.617Z,32.80
2022-12-08T22:06:13.919Z,33.04
2022-12-08T22:08:40.800Z,32.80
2022-12-08T22:11:09.716Z,32.72
2022-12-08T22:13:37.036Z,32.88
2022-12-08T22:16:04.802Z,32.74
2022-12-08T22:18:31.407Z,32.59
2022-12-08T22:20:58.119Z,32.79
2022-12-08T22:23:24.632Z,32.83
2022-12-08T22:25:56.092Z,32.76
2022-12-08T22:28:23.866Z,32.82
2022-12-08T22:30:50.259Z,32.81
2022-12-08T22:33:16.617Z,32.68
2022-12-08T22:35:43.018Z,32.79
2022-12-08T22:38:09.469Z,32.70
2022-12-08T22:40:35.817Z,32.69
2022-12-08T22:43:02.255Z,32.67
2022-12-08T22:45:30.045Z,32.72
2022-12-08T22:47:56.451Z,32.48
2022-12-08T22:50:22.864Z,32.55
2022-12-08T22:52:49.130Z,32.52
2022-12-08T22:55:15.464Z,32.74
2022-12-08T22:57:41.936Z,32.57
2022-12-08T23:00:09.295Z,32.50
2022-12-08T23:02:37.902Z,32.46
2022-12-08T23:05:04.823Z,32.48
2022-12-08T23:07:31.701Z,32.52
2022-12-08T23:09:58.134Z,32.39
2022-12-08T23:12:24.944Z,32.37
2022-12-08T23:14:51.309Z,32.38
2022-12-08T23:17:17.912Z,32.44
2022-12-08T23:19:45.595Z,32.31
2022-12-08T23:22:11.971Z,32.29
2022-12-08T23:24:38.538Z,32.28
2022-12-08T23:27:05.093Z,32.15
2022-12-08T23:29:31.546Z,32.38
2022-12-08T23:31:57.998Z,32.32
2022-12-08T23:34:24.611Z,32.20
2022-12-08T23:36:52.187Z,32.34
2022-12-08T23:39:18.615Z,32.24
2022-12-08T23:41:45.089Z,32.29
2022-12-08T23:44:11.536Z,32.12
2022-12-08T23:46:38.033Z,32.08
2022-12-08T23:49:04.415Z,32.09
2022-12-08T23:51:30.861Z,32.03
2022-12-08T23:53:58.442Z,32.01
2022-12-08T23:56:30.038Z,32.07
2022-12-08T23:58:57.109Z,32.14
